This is the latest recevied weather packets stored in our database for station/object CA3NEB-13. If no packets are shown the sender has not sent any weather packets the latest 10 day(s).
| Time | Temp. | Humidity | Pressure | Rain* | Wind** | Luminosity | Snow |
|---|---|---|---|---|---|---|---|
| 1787780009 | 1.11° C | 73% | 1011.9 hPa | - | - | - | - |
| 1787779409 | 1.11° C | 72% | 1011.5 hPa | - | - | - | - |
| 1787778809 | 1.11° C | 72% | 1011 hPa | - | - | - | - |
| 1787778209 | 1.11° C | 72% | 1010.7 hPa | - | - | - | - |
| 1787777610 | 1.11° C | 72% | 1010.4 hPa | - | - | - | - |
| 1787777009 | 1.11° C | 73% | 1010.7 hPa | - | - | - | - |
| 1787776409 | 1.11° C | 74% | 1010.6 hPa | - | - | - | - |
| 1787775809 | 1.11° C | 75% | 1011.3 hPa | - | - | - | - |
| 1787775209 | 1.11° C | 76% | 1010.3 hPa | - | - | - | - |
| 1787774609 | 1.11° C | 76% | 1010.7 hPa | - | - | - | - |
| 1787774009 | 1.11° C | 76% | 1011 hPa | - | - | - | - |
| 1787773409 | 0.56° C | 76% | 1011.3 hPa | - | - | - | - |
| 1787772809 | 0.56° C | 75% | 1011.8 hPa | - | - | - | - |
| 1787772209 | 0.56° C | 74% | 1012.6 hPa | - | - | - | - |
| 1787771609 | 0.56° C | 74% | 1013.1 hPa | - | - | - | - |
| 1787771009 | 0.56° C | 75% | 1013 hPa | - | - | - | - |
| 1787770409 | 0.56° C | 73% | 1012.7 hPa | - | - | - | - |
| 1787769811 | 1.11° C | 73% | 1012 hPa | - | - | - | - |
| 1787769209 | 1.11° C | 73% | 1011.9 hPa | - | - | - | - |
| 1787768608 | 1.11° C | 71% | 1011.6 hPa | - | - | - | - |
| 1787768009 | 1.67° C | 71% | 1011.1 hPa | - | - | - | - |
| 1787767409 | 1.67° C | 71% | 1011 hPa | - | - | - | - |
| 1787766809 | 2.22° C | 69% | 1010.4 hPa | - | - | - | - |
| 1787766209 | 2.78° C | 69% | 1009.7 hPa | - | - | - | - |
| 1787765609 | 3.33° C | 66% | 1009 hPa | - | - | - | - |
* Rain since midnight (hover to see other rain measurements)
** Current wind speed in m/s (hover to see current wind gust speed)